sensor_id;sensor_type;location;lat;lon;timestamp;temperature;humidity
25628;DHT22;40915;50.826;4.356;2023-01-25T00:02:02;2.00;99.90
25628;DHT22;40915;50.826;4.356;2023-01-25T00:04:28;2.00;99.90
25628;DHT22;40915;50.826;4.356;2023-01-25T00:06:53;2.10;99.90
25628;DHT22;40915;50.826;4.356;2023-01-25T00:09:19;2.00;99.90
25628;DHT22;40915;50.826;4.356;2023-01-25T00:11:45;2.00;99.90
25628;DHT22;40915;50.826;4.356;2023-01-25T00:14:11;2.00;99.90
25628;DHT22;40915;50.826;4.356;2023-01-25T00:16:38;2.00;99.90
25628;DHT22;40915;50.826;4.356;2023-01-25T00:19:04;2.00;99.90
25628;DHT22;40915;50.826;4.356;2023-01-25T00:21:30;2.00;99.90
25628;DHT22;40915;50.826;4.356;2023-01-25T00:23:56;2.00;99.90
25628;DHT22;40915;50.826;4.356;2023-01-25T00:26:21;1.90;99.90
25628;DHT22;40915;50.826;4.356;2023-01-25T00:28:49;1.90;99.90
25628;DHT22;40915;50.826;4.356;2023-01-25T00:36:49;1.80;99.90
25628;DHT22;40915;50.826;4.356;2023-01-25T00:39:15;1.80;99.90
25628;DHT22;40915;50.826;4.356;2023-01-25T00:41:42;1.80;99.90
25628;DHT22;40915;50.826;4.356;2023-01-25T00:44:08;1.90;99.90
25628;DHT22;40915;50.826;4.356;2023-01-25T00:46:33;1.90;99.90
25628;DHT22;40915;50.826;4.356;2023-01-25T00:48:59;2.00;99.90
25628;DHT22;40915;50.826;4.356;2023-01-25T00:51:24;1.90;99.90
25628;DHT22;40915;50.826;4.356;2023-01-25T00:53:51;1.90;99.90
25628;DHT22;40915;50.826;4.356;2023-01-25T00:56:16;1.90;99.90
25628;DHT22;40915;50.826;4.356;2023-01-25T00:58:42;1.90;99.90
25628;DHT22;40915;50.826;4.356;2023-01-25T01:01:09;1.90;99.90
25628;DHT22;40915;50.826;4.356;2023-01-25T01:03:35;1.80;99.90
25628;DHT22;40915;50.826;4.356;2023-01-25T01:06:01;1.80;99.90
25628;DHT22;40915;50.826;4.356;2023-01-25T01:08:27;1.80;99.90
25628;DHT22;40915;50.826;4.356;2023-01-25T01:10:58;1.80;99.90
25628;DHT22;40915;50.826;4.356;2023-01-25T01:13:25;1.80;99.90
25628;DHT22;40915;50.826;4.356;2023-01-25T01:15:51;1.90;99.90
25628;DHT22;40915;50.826;4.356;2023-01-25T01:18:16;1.80;99.90
25628;DHT22;40915;50.826;4.356;2023-01-25T01:20:48;1.90;99.90
25628;DHT22;40915;50.826;4.356;2023-01-25T01:23:13;1.80;99.90
25628;DHT22;40915;50.826;4.356;2023-01-25T01:25:39;1.80;99.90
25628;DHT22;40915;50.826;4.356;2023-01-25T01:28:04;1.80;99.90
25628;DHT22;40915;50.826;4.356;2023-01-25T01:30:30;1.80;99.90
25628;DHT22;40915;50.826;4.356;2023-01-25T01:32:55;1.70;99.90
25628;DHT22;40915;50.826;4.356;2023-01-25T01:35:21;1.80;99.90
25628;DHT22;40915;50.826;4.356;2023-01-25T01:37:46;1.70;99.90
25628;DHT22;40915;50.826;4.356;2023-01-25T01:40:14;1.70;99.90
25628;DHT22;40915;50.826;4.356;2023-01-25T01:42:59;1.70;99.90
25628;DHT22;40915;50.826;4.356;2023-01-25T01:50:44;1.70;99.90
25628;DHT22;40915;50.826;4.356;2023-01-25T01:53:10;1.70;99.90
25628;DHT22;40915;50.826;4.356;2023-01-25T01:55:35;1.70;99.90
25628;DHT22;40915;50.826;4.356;2023-01-25T01:58:02;1.60;99.90
25628;DHT22;40915;50.826;4.356;2023-01-25T02:00:32;1.60;99.90
25628;DHT22;40915;50.826;4.356;2023-01-25T02:02:59;1.60;99.90
25628;DHT22;40915;50.826;4.356;2023-01-25T02:05:30;1.50;99.90
25628;DHT22;40915;50.826;4.356;2023-01-25T02:07:58;1.50;99.90
25628;DHT22;40915;50.826;4.356;2023-01-25T02:10:25;1.50;99.90
25628;DHT22;40915;50.826;4.356;2023-01-25T02:12:53;1.50;99.90
25628;DHT22;40915;50.826;4.356;2023-01-25T02:15:20;1.50;99.90
25628;DHT22;40915;50.826;4.356;2023-01-25T02:17:46;1.60;99.90
25628;DHT22;40915;50.826;4.356;2023-01-25T02:25:42;1.40;99.90
25628;DHT22;40915;50.826;4.356;2023-01-25T02:28:23;1.50;99.90
25628;DHT22;40915;50.826;4.356;2023-01-25T02:30:49;1.50;99.90
25628;DHT22;40915;50.826;4.356;2023-01-25T02:33:15;1.50;99.90
25628;DHT22;40915;50.826;4.356;2023-01-25T02:35:45;1.60;99.90
25628;DHT22;40915;50.826;4.356;2023-01-25T02:38:14;1.60;99.90
25628;DHT22;40915;50.826;4.356;2023-01-25T02:43:36;1.60;99.90
25628;DHT22;40915;50.826;4.356;2023-01-25T02:46:17;1.60;99.90
25628;DHT22;40915;50.826;4.356;2023-01-25T02:48:45;1.50;99.90
25628;DHT22;40915;50.826;4.356;2023-01-25T02:51:11;1.50;99.90
25628;DHT22;40915;50.826;4.356;2023-01-25T02:53:36;1.50;99.90
25628;DHT22;40915;50.826;4.356;2023-01-25T02:56:02;1.40;99.90
25628;DHT22;40915;50.826;4.356;2023-01-25T02:58:28;1.40;99.90
25628;DHT22;40915;50.826;4.356;2023-01-25T03:00:54;1.40;99.90
25628;DHT22;40915;50.826;4.356;2023-01-25T03:03:20;1.40;99.90
25628;DHT22;40915;50.826;4.356;2023-01-25T03:05:46;1.40;99.90
25628;DHT22;40915;50.826;4.356;2023-01-25T03:08:11;1.30;99.90
25628;DHT22;40915;50.826;4.356;2023-01-25T03:10:37;1.40;99.90
25628;DHT22;40915;50.826;4.356;2023-01-25T03:13:02;1.30;99.90
25628;DHT22;40915;50.826;4.356;2023-01-25T03:15:28;1.40;99.90
25628;DHT22;40915;50.826;4.356;2023-01-25T03:17:55;1.30;99.90
25628;DHT22;40915;50.826;4.356;2023-01-25T03:20:21;1.30;99.90
25628;DHT22;40915;50.826;4.356;2023-01-25T03:22:47;1.30;99.90
25628;DHT22;40915;50.826;4.356;2023-01-25T03:25:12;1.40;99.90
25628;DHT22;40915;50.826;4.356;2023-01-25T03:27:38;1.40;99.90
25628;DHT22;40915;50.826;4.356;2023-01-25T03:30:04;1.40;99.90
25628;DHT22;40915;50.826;4.356;2023-01-25T03:32:30;1.40;99.90
25628;DHT22;40915;50.826;4.356;2023-01-25T03:34:55;1.40;99.90
25628;DHT22;40915;50.826;4.356;2023-01-25T03:37:21;1.40;99.90
25628;DHT22;40915;50.826;4.356;2023-01-25T03:39:47;1.40;99.90
25628;DHT22;40915;50.826;4.356;2023-01-25T03:42:12;1.40;99.90
25628;DHT22;40915;50.826;4.356;2023-01-25T03:44:38;1.40;99.90
25628;DHT22;40915;50.826;4.356;2023-01-25T03:47:03;1.40;99.90
25628;DHT22;40915;50.826;4.356;2023-01-25T03:49:29;1.40;99.90
25628;DHT22;40915;50.826;4.356;2023-01-25T03:51:54;1.40;99.90
25628;DHT22;40915;50.826;4.356;2023-01-25T03:54:22;1.40;99.90
25628;DHT22;40915;50.826;4.356;2023-01-25T03:56:48;1.30;99.90
25628;DHT22;40915;50.826;4.356;2023-01-25T03:59:13;1.30;99.90
25628;DHT22;40915;50.826;4.356;2023-01-25T04:01:39;1.30;99.90
25628;DHT22;40915;50.826;4.356;2023-01-25T04:04:04;1.30;99.90
25628;DHT22;40915;50.826;4.356;2023-01-25T04:06:30;1.30;99.90
25628;DHT22;40915;50.826;4.356;2023-01-25T04:08:55;1.30;99.90
25628;DHT22;40915;50.826;4.356;2023-01-25T04:11:21;1.20;99.90
25628;DHT22;40915;50.826;4.356;2023-01-25T04:13:47;1.20;99.90
25628;DHT22;40915;50.826;4.356;2023-01-25T04:16:12;1.20;99.90
25628;DHT22;40915;50.826;4.356;2023-01-25T04:18:38;1.30;99.90
25628;DHT22;40915;50.826;4.356;2023-01-25T04:21:05;1.30;99.90
25628;DHT22;40915;50.826;4.356;2023-01-25T04:23:31;1.20;99.90
25628;DHT22;40915;50.826;4.356;2023-01-25T04:26:02;1.20;99.90
25628;DHT22;40915;50.826;4.356;2023-01-25T04:28:30;1.10;99.90
25628;DHT22;40915;50.826;4.356;2023-01-25T04:30:56;1.10;99.90
25628;DHT22;40915;50.826;4.356;2023-01-25T04:33:22;1.10;99.90
25628;DHT22;40915;50.826;4.356;2023-01-25T04:35:48;1.10;99.90
25628;DHT22;40915;50.826;4.356;2023-01-25T04:38:14;1.10;99.90
25628;DHT22;40915;50.826;4.356;2023-01-25T04:40:40;1.10;99.90
25628;DHT22;40915;50.826;4.356;2023-01-25T04:43:06;1.10;99.90
25628;DHT22;40915;50.826;4.356;2023-01-25T04:45:32;1.00;99.90
25628;DHT22;40915;50.826;4.356;2023-01-25T04:48:00;1.00;99.90
25628;DHT22;40915;50.826;4.356;2023-01-25T04:50:26;1.00;99.90
25628;DHT22;40915;50.826;4.356;2023-01-25T04:52:52;1.00;99.90
25628;DHT22;40915;50.826;4.356;2023-01-25T04:55:18;1.00;99.90
25628;DHT22;40915;50.826;4.356;2023-01-25T04:57:44;1.00;99.90
25628;DHT22;40915;50.826;4.356;2023-01-25T05:00:10;1.10;99.90
25628;DHT22;40915;50.826;4.356;2023-01-25T05:02:36;1.10;99.90
25628;DHT22;40915;50.826;4.356;2023-01-25T05:05:02;1.10;99.90
25628;DHT22;40915;50.826;4.356;2023-01-25T05:07:27;1.10;99.90
25628;DHT22;40915;50.826;4.356;2023-01-25T05:09:53;1.00;99.90
25628;DHT22;40915;50.826;4.356;2023-01-25T05:12:19;1.00;99.90
25628;DHT22;40915;50.826;4.356;2023-01-25T05:14:44;1.10;99.90
25628;DHT22;40915;50.826;4.356;2023-01-25T05:17:10;1.10;99.90
25628;DHT22;40915;50.826;4.356;2023-01-25T05:19:35;1.10;99.90
25628;DHT22;40915;50.826;4.356;2023-01-25T05:22:03;1.10;99.90
25628;DHT22;40915;50.826;4.356;2023-01-25T05:24:33;1.10;99.90
25628;DHT22;40915;50.826;4.356;2023-01-25T05:27:00;1.10;99.90
25628;DHT22;40915;50.826;4.356;2023-01-25T05:29:36;1.10;99.90
25628;DHT22;40915;50.826;4.356;2023-01-25T05:32:07;1.10;99.90
25628;DHT22;40915;50.826;4.356;2023-01-25T05:34:33;1.10;99.90
25628;DHT22;40915;50.826;4.356;2023-01-25T05:36:59;1.10;99.90
25628;DHT22;40915;50.826;4.356;2023-01-25T05:39:25;1.10;99.90
25628;DHT22;40915;50.826;4.356;2023-01-25T05:41:51;1.10;99.90
25628;DHT22;40915;50.826;4.356;2023-01-25T05:44:16;1.10;99.90
25628;DHT22;40915;50.826;4.356;2023-01-25T05:46:42;1.10;99.90
25628;DHT22;40915;50.826;4.356;2023-01-25T05:49:08;1.10;99.90
25628;DHT22;40915;50.826;4.356;2023-01-25T05:51:34;1.20;99.90
25628;DHT22;40915;50.826;4.356;2023-01-25T05:54:00;1.20;99.90
25628;DHT22;40915;50.826;4.356;2023-01-25T05:56:26;1.10;99.90
25628;DHT22;40915;50.826;4.356;2023-01-25T05:58:56;1.10;99.90
25628;DHT22;40915;50.826;4.356;2023-01-25T06:01:23;1.10;99.90
25628;DHT22;40915;50.826;4.356;2023-01-25T06:03:49;1.10;99.90
25628;DHT22;40915;50.826;4.356;2023-01-25T06:06:14;1.10;99.90
25628;DHT22;40915;50.826;4.356;2023-01-25T06:08:40;1.10;99.90
25628;DHT22;40915;50.826;4.356;2023-01-25T06:11:10;1.10;99.90
25628;DHT22;40915;50.826;4.356;2023-01-25T06:13:35;1.20;99.90
25628;DHT22;40915;50.826;4.356;2023-01-25T06:16:01;1.20;99.90
25628;DHT22;40915;50.826;4.356;2023-01-25T06:18:29;1.20;99.90
25628;DHT22;40915;50.826;4.356;2023-01-25T06:20:59;1.20;99.90
25628;DHT22;40915;50.826;4.356;2023-01-25T06:23:25;1.30;99.90
25628;DHT22;40915;50.826;4.356;2023-01-25T06:25:51;1.20;99.90
25628;DHT22;40915;50.826;4.356;2023-01-25T06:28:19;1.20;99.90
25628;DHT22;40915;50.826;4.356;2023-01-25T06:30:45;1.20;99.90
25628;DHT22;40915;50.826;4.356;2023-01-25T06:33:11;1.20;99.90
25628;DHT22;40915;50.826;4.356;2023-01-25T06:35:36;1.10;99.90
25628;DHT22;40915;50.826;4.356;2023-01-25T06:38:05;1.10;99.90
25628;DHT22;40915;50.826;4.356;2023-01-25T06:40:31;1.20;99.90
25628;DHT22;40915;50.826;4.356;2023-01-25T06:43:07;1.20;99.90
25628;DHT22;40915;50.826;4.356;2023-01-25T06:45:33;1.20;99.90
25628;DHT22;40915;50.826;4.356;2023-01-25T06:47:59;1.10;99.90
25628;DHT22;40915;50.826;4.356;2023-01-25T06:50:25;1.10;99.90
25628;DHT22;40915;50.826;4.356;2023-01-25T06:52:52;1.10;99.90
25628;DHT22;40915;50.826;4.356;2023-01-25T06:55:17;1.10;99.90
25628;DHT22;40915;50.826;4.356;2023-01-25T06:57:43;1.10;99.90
25628;DHT22;40915;50.826;4.356;2023-01-25T07:00:09;1.00;99.90
25628;DHT22;40915;50.826;4.356;2023-01-25T07:02:35;1.00;99.90
25628;DHT22;40915;50.826;4.356;2023-01-25T07:05:01;1.00;99.90
25628;DHT22;40915;50.826;4.356;2023-01-25T07:07:27;1.10;99.90
25628;DHT22;40915;50.826;4.356;2023-01-25T07:09:52;1.10;99.90
25628;DHT22;40915;50.826;4.356;2023-01-25T07:12:18;1.10;99.90
25628;DHT22;40915;50.826;4.356;2023-01-25T07:14:44;1.10;99.90
25628;DHT22;40915;50.826;4.356;2023-01-25T07:17:12;1.10;99.90
25628;DHT22;40915;50.826;4.356;2023-01-25T07:19:38;1.20;99.90
25628;DHT22;40915;50.826;4.356;2023-01-25T07:22:03;1.20;99.90
25628;DHT22;40915;50.826;4.356;2023-01-25T07:24:29;1.20;99.90
25628;DHT22;40915;50.826;4.356;2023-01-25T07:26:55;1.10;99.90
25628;DHT22;40915;50.826;4.356;2023-01-25T07:29:20;1.10;99.90
25628;DHT22;40915;50.826;4.356;2023-01-25T07:31:46;1.20;99.90
25628;DHT22;40915;50.826;4.356;2023-01-25T07:34:12;1.10;99.90
25628;DHT22;40915;50.826;4.356;2023-01-25T07:36:38;1.10;99.90
25628;DHT22;40915;50.826;4.356;2023-01-25T07:39:05;1.10;99.90
25628;DHT22;40915;50.826;4.356;2023-01-25T07:41:31;1.20;99.90
25628;DHT22;40915;50.826;4.356;2023-01-25T07:43:59;1.20;99.90
25628;DHT22;40915;50.826;4.356;2023-01-25T07:46:25;1.20;99.90
25628;DHT22;40915;50.826;4.356;2023-01-25T07:48:51;1.20;99.90
25628;DHT22;40915;50.826;4.356;2023-01-25T07:51:19;1.30;99.90
25628;DHT22;40915;50.826;4.356;2023-01-25T07:53:56;1.40;99.90
25628;DHT22;40915;50.826;4.356;2023-01-25T07:56:23;1.40;99.90
25628;DHT22;40915;50.826;4.356;2023-01-25T07:58:51;1.30;99.90
25628;DHT22;40915;50.826;4.356;2023-01-25T08:01:20;1.20;99.90
25628;DHT22;40915;50.826;4.356;2023-01-25T08:03:47;1.20;99.90
25628;DHT22;40915;50.826;4.356;2023-01-25T08:06:12;1.20;99.90
25628;DHT22;40915;50.826;4.356;2023-01-25T08:08:46;1.20;99.90
25628;DHT22;40915;50.826;4.356;2023-01-25T08:11:20;1.20;99.90
25628;DHT22;40915;50.826;4.356;2023-01-25T08:13:46;1.20;99.90
25628;DHT22;40915;50.826;4.356;2023-01-25T08:16:15;1.20;99.90
25628;DHT22;40915;50.826;4.356;2023-01-25T08:18:42;1.10;99.90
25628;DHT22;40915;50.826;4.356;2023-01-25T08:21:08;1.10;99.90
25628;DHT22;40915;50.826;4.356;2023-01-25T08:23:34;1.10;99.90
25628;DHT22;40915;50.826;4.356;2023-01-25T08:26:07;1.10;99.90
25628;DHT22;40915;50.826;4.356;2023-01-25T08:28:33;1.10;99.90
25628;DHT22;40915;50.826;4.356;2023-01-25T08:31:13;1.00;99.90
25628;DHT22;40915;50.826;4.356;2023-01-25T08:33:40;1.10;99.90
25628;DHT22;40915;50.826;4.356;2023-01-25T08:36:08;1.10;99.90
25628;DHT22;40915;50.826;4.356;2023-01-25T08:38:34;1.10;99.90
25628;DHT22;40915;50.826;4.356;2023-01-25T08:41:05;1.10;99.90
25628;DHT22;40915;50.826;4.356;2023-01-25T08:43:31;1.20;99.90
25628;DHT22;40915;50.826;4.356;2023-01-25T08:45:56;1.10;99.90
25628;DHT22;40915;50.826;4.356;2023-01-25T08:48:22;1.10;99.90
25628;DHT22;40915;50.826;4.356;2023-01-25T08:50:48;1.20;99.90
25628;DHT22;40915;50.826;4.356;2023-01-25T08:53:14;1.30;99.90
25628;DHT22;40915;50.826;4.356;2023-01-25T08:55:40;1.30;99.90
25628;DHT22;40915;50.826;4.356;2023-01-25T08:58:09;1.30;99.90
25628;DHT22;40915;50.826;4.356;2023-01-25T09:00:38;1.30;99.90
25628;DHT22;40915;50.826;4.356;2023-01-25T09:03:05;1.40;99.90
25628;DHT22;40915;50.826;4.356;2023-01-25T09:05:33;1.30;99.90
25628;DHT22;40915;50.826;4.356;2023-01-25T09:07:59;1.40;99.90
25628;DHT22;40915;50.826;4.356;2023-01-25T09:10:25;1.50;99.90
25628;DHT22;40915;50.826;4.356;2023-01-25T09:12:51;1.50;99.90
25628;DHT22;40915;50.826;4.356;2023-01-25T09:15:16;1.50;99.90
25628;DHT22;40915;50.826;4.356;2023-01-25T09:17:42;1.60;99.90
25628;DHT22;40915;50.826;4.356;2023-01-25T09:20:08;1.60;99.90
25628;DHT22;40915;50.826;4.356;2023-01-25T09:22:34;1.60;99.90
25628;DHT22;40915;50.826;4.356;2023-01-25T09:25:00;1.50;99.90
25628;DHT22;40915;50.826;4.356;2023-01-25T09:27:26;1.60;99.90
25628;DHT22;40915;50.826;4.356;2023-01-25T09:29:51;1.60;99.90
25628;DHT22;40915;50.826;4.356;2023-01-25T09:32:17;1.70;99.90
25628;DHT22;40915;50.826;4.356;2023-01-25T09:34:42;1.70;99.90
25628;DHT22;40915;50.826;4.356;2023-01-25T09:37:08;1.70;99.90
25628;DHT22;40915;50.826;4.356;2023-01-25T09:39:33;1.70;99.90
25628;DHT22;40915;50.826;4.356;2023-01-25T09:47:44;1.70;99.90
25628;DHT22;40915;50.826;4.356;2023-01-25T09:53:06;1.80;99.90
25628;DHT22;40915;50.826;4.356;2023-01-25T09:55:37;1.80;99.90
25628;DHT22;40915;50.826;4.356;2023-01-25T09:58:03;1.80;99.90
25628;DHT22;40915;50.826;4.356;2023-01-25T10:00:37;1.90;99.90
25628;DHT22;40915;50.826;4.356;2023-01-25T10:03:18;1.90;99.90
25628;DHT22;40915;50.826;4.356;2023-01-25T10:05:47;1.90;99.90
25628;DHT22;40915;50.826;4.356;2023-01-25T10:08:31;1.90;99.90
25628;DHT22;40915;50.826;4.356;2023-01-25T10:13:45;1.90;99.90
25628;DHT22;40915;50.826;4.356;2023-01-25T10:16:39;1.90;99.90
25628;DHT22;40915;50.826;4.356;2023-01-25T10:19:28;1.90;99.90
25628;DHT22;40915;50.826;4.356;2023-01-25T10:22:13;1.80;99.90
25628;DHT22;40915;50.826;4.356;2023-01-25T10:30:28;1.90;99.90
25628;DHT22;40915;50.826;4.356;2023-01-25T10:32:58;1.90;99.90
25628;DHT22;40915;50.826;4.356;2023-01-25T10:35:36;1.80;99.90
25628;DHT22;40915;50.826;4.356;2023-01-25T10:38:14;1.80;99.90
25628;DHT22;40915;50.826;4.356;2023-01-25T10:40:47;1.70;99.90
25628;DHT22;40915;50.826;4.356;2023-01-25T10:43:17;1.60;99.90
25628;DHT22;40915;50.826;4.356;2023-01-25T10:45:45;1.60;99.90
25628;DHT22;40915;50.826;4.356;2023-01-25T10:48:16;1.50;99.90
25628;DHT22;40915;50.826;4.356;2023-01-25T10:50:47;1.50;99.90
25628;DHT22;40915;50.826;4.356;2023-01-25T10:53:35;1.50;99.90
25628;DHT22;40915;50.826;4.356;2023-01-25T10:58:42;1.50;99.90
25628;DHT22;40915;50.826;4.356;2023-01-25T11:01:24;1.60;99.90
25628;DHT22;40915;50.826;4.356;2023-01-25T11:03:51;1.60;99.90
25628;DHT22;40915;50.826;4.356;2023-01-25T11:06:29;1.70;99.90
25628;DHT22;40915;50.826;4.356;2023-01-25T11:08:54;1.80;99.90
25628;DHT22;40915;50.826;4.356;2023-01-25T11:11:36;1.80;99.90
25628;DHT22;40915;50.826;4.356;2023-01-25T11:14:16;1.90;99.90
25628;DHT22;40915;50.826;4.356;2023-01-25T11:16:45;2.00;99.90
25628;DHT22;40915;50.826;4.356;2023-01-25T11:22:04;2.10;99.90
25628;DHT22;40915;50.826;4.356;2023-01-25T11:24:34;2.10;99.90
25628;DHT22;40915;50.826;4.356;2023-01-25T11:27:20;2.10;99.90
25628;DHT22;40915;50.826;4.356;2023-01-25T11:32:30;2.00;99.90
25628;DHT22;40915;50.826;4.356;2023-01-25T11:34:56;2.00;99.90
25628;DHT22;40915;50.826;4.356;2023-01-25T11:40:17;1.90;99.90
25628;DHT22;40915;50.826;4.356;2023-01-25T11:54:27;2.20;99.90
25628;DHT22;40915;50.826;4.356;2023-01-25T11:56:59;2.20;99.90
25628;DHT22;40915;50.826;4.356;2023-01-25T12:28:47;2.30;99.90
25628;DHT22;40915;50.826;4.356;2023-01-25T12:33:59;2.20;99.90
25628;DHT22;40915;50.826;4.356;2023-01-25T12:36:36;2.30;99.90
25628;DHT22;40915;50.826;4.356;2023-01-25T12:39:12;2.30;99.90
25628;DHT22;40915;50.826;4.356;2023-01-25T12:41:48;2.30;99.90
25628;DHT22;40915;50.826;4.356;2023-01-25T12:49:59;2.40;99.90
25628;DHT22;40915;50.826;4.356;2023-01-25T12:52:32;2.30;99.90
25628;DHT22;40915;50.826;4.356;2023-01-25T12:55:03;2.40;99.90
25628;DHT22;40915;50.826;4.356;2023-01-25T12:57:35;2.40;99.90
25628;DHT22;40915;50.826;4.356;2023-01-25T13:00:06;2.40;99.90
25628;DHT22;40915;50.826;4.356;2023-01-25T13:02:53;2.20;99.90
25628;DHT22;40915;50.826;4.356;2023-01-25T13:10:47;1.90;99.90
25628;DHT22;40915;50.826;4.356;2023-01-25T13:13:26;1.90;99.90
25628;DHT22;40915;50.826;4.356;2023-01-25T13:15:53;2.10;99.90
25628;DHT22;40915;50.826;4.356;2023-01-25T13:20:55;2.20;99.90
25628;DHT22;40915;50.826;4.356;2023-01-25T13:23:34;2.20;99.90
25628;DHT22;40915;50.826;4.356;2023-01-25T13:28:51;2.30;99.90
25628;DHT22;40915;50.826;4.356;2023-01-25T13:37:21;2.10;99.90
25628;DHT22;40915;50.826;4.356;2023-01-25T13:40:27;2.10;99.90
25628;DHT22;40915;50.826;4.356;2023-01-25T13:43:22;2.10;99.90
25628;DHT22;40915;50.826;4.356;2023-01-25T13:45:50;2.10;99.90
25628;DHT22;40915;50.826;4.356;2023-01-25T13:48:22;2.00;99.90
25628;DHT22;40915;50.826;4.356;2023-01-25T13:50:54;2.10;99.90
25628;DHT22;40915;50.826;4.356;2023-01-25T13:53:23;2.20;99.90
25628;DHT22;40915;50.826;4.356;2023-01-25T13:55:53;2.20;99.90
25628;DHT22;40915;50.826;4.356;2023-01-25T13:58:20;2.10;99.90
25628;DHT22;40915;50.826;4.356;2023-01-25T14:01:03;2.10;99.90
25628;DHT22;40915;50.826;4.356;2023-01-25T14:03:34;2.10;99.90
25628;DHT22;40915;50.826;4.356;2023-01-25T14:06:01;2.00;99.90
25628;DHT22;40915;50.826;4.356;2023-01-25T14:08:29;2.00;99.90
25628;DHT22;40915;50.826;4.356;2023-01-25T14:10:56;2.00;99.90
25628;DHT22;40915;50.826;4.356;2023-01-25T14:13:22;2.00;99.90
25628;DHT22;40915;50.826;4.356;2023-01-25T14:15:58;2.00;99.90
25628;DHT22;40915;50.826;4.356;2023-01-25T14:18:31;2.00;99.90
25628;DHT22;40915;50.826;4.356;2023-01-25T14:21:17;1.90;99.90
25628;DHT22;40915;50.826;4.356;2023-01-25T14:23:43;1.90;99.90
25628;DHT22;40915;50.826;4.356;2023-01-25T14:26:28;1.90;99.90
25628;DHT22;40915;50.826;4.356;2023-01-25T14:28:56;1.90;99.90
25628;DHT22;40915;50.826;4.356;2023-01-25T14:31:31;1.90;99.90
25628;DHT22;40915;50.826;4.356;2023-01-25T14:33:57;1.90;99.90
25628;DHT22;40915;50.826;4.356;2023-01-25T14:36:28;1.90;99.90
25628;DHT22;40915;50.826;4.356;2023-01-25T14:38:54;1.80;99.90
25628;DHT22;40915;50.826;4.356;2023-01-25T14:44:02;1.60;99.90
25628;DHT22;40915;50.826;4.356;2023-01-25T14:46:31;1.60;99.90
25628;DHT22;40915;50.826;4.356;2023-01-25T14:51:47;1.50;99.90
25628;DHT22;40915;50.826;4.356;2023-01-25T14:54:25;1.40;99.90
25628;DHT22;40915;50.826;4.356;2023-01-25T14:59:21;1.30;99.90
25628;DHT22;40915;50.826;4.356;2023-01-25T15:01:49;1.30;99.90
25628;DHT22;40915;50.826;4.356;2023-01-25T15:04:16;1.30;99.90
25628;DHT22;40915;50.826;4.356;2023-01-25T15:06:50;1.30;99.90
25628;DHT22;40915;50.826;4.356;2023-01-25T15:09:37;1.30;99.90
25628;DHT22;40915;50.826;4.356;2023-01-25T15:14:48;1.20;99.90
25628;DHT22;40915;50.826;4.356;2023-01-25T15:23:36;1.20;99.90
25628;DHT22;40915;50.826;4.356;2023-01-25T15:26:01;1.20;99.90
25628;DHT22;40915;50.826;4.356;2023-01-25T15:28:36;1.10;99.90
25628;DHT22;40915;50.826;4.356;2023-01-25T15:31:03;1.00;99.90
25628;DHT22;40915;50.826;4.356;2023-01-25T15:33:29;1.00;99.90
25628;DHT22;40915;50.826;4.356;2023-01-25T15:35:57;1.10;99.90
25628;DHT22;40915;50.826;4.356;2023-01-25T15:40:50;0.90;99.90
25628;DHT22;40915;50.826;4.356;2023-01-25T15:43:17;2.90;99.90
25628;DHT22;40915;50.826;4.356;2023-01-25T15:45:45;0.90;99.90
25628;DHT22;40915;50.826;4.356;2023-01-25T15:48:20;0.90;99.90
25628;DHT22;40915;50.826;4.356;2023-01-25T15:50:47;0.90;99.90
25628;DHT22;40915;50.826;4.356;2023-01-25T15:53:16;1.00;99.90
25628;DHT22;40915;50.826;4.356;2023-01-25T15:55:44;1.00;99.90
25628;DHT22;40915;50.826;4.356;2023-01-25T15:58:16;1.10;99.90
25628;DHT22;40915;50.826;4.356;2023-01-25T16:00:45;1.00;99.90
25628;DHT22;40915;50.826;4.356;2023-01-25T16:03:10;1.00;99.90
25628;DHT22;40915;50.826;4.356;2023-01-25T16:05:37;1.00;99.90
25628;DHT22;40915;50.826;4.356;2023-01-25T16:08:03;0.90;99.90
25628;DHT22;40915;50.826;4.356;2023-01-25T16:10:28;0.80;99.90
25628;DHT22;40915;50.826;4.356;2023-01-25T16:12:54;0.90;99.90
25628;DHT22;40915;50.826;4.356;2023-01-25T16:15:19;0.90;99.90
25628;DHT22;40915;50.826;4.356;2023-01-25T16:17:45;0.80;99.90
25628;DHT22;40915;50.826;4.356;2023-01-25T16:20:18;0.90;99.90
25628;DHT22;40915;50.826;4.356;2023-01-25T16:22:44;0.90;99.90
25628;DHT22;40915;50.826;4.356;2023-01-25T16:25:10;0.90;99.90
25628;DHT22;40915;50.826;4.356;2023-01-25T16:27:36;0.90;99.90
25628;DHT22;40915;50.826;4.356;2023-01-25T16:30:06;0.90;99.90
25628;DHT22;40915;50.826;4.356;2023-01-25T16:32:31;0.60;99.90
25628;DHT22;40915;50.826;4.356;2023-01-25T16:34:57;0.60;99.90
25628;DHT22;40915;50.826;4.356;2023-01-25T16:37:23;0.60;99.90
25628;DHT22;40915;50.826;4.356;2023-01-25T16:39:48;0.70;99.90
25628;DHT22;40915;50.826;4.356;2023-01-25T16:42:16;0.70;99.90
25628;DHT22;40915;50.826;4.356;2023-01-25T16:44:42;0.60;99.90
25628;DHT22;40915;50.826;4.356;2023-01-25T16:47:12;0.50;99.90
25628;DHT22;40915;50.826;4.356;2023-01-25T16:49:38;0.50;99.90
25628;DHT22;40915;50.826;4.356;2023-01-25T16:52:04;0.50;99.90
25628;DHT22;40915;50.826;4.356;2023-01-25T16:54:30;0.60;99.90
25628;DHT22;40915;50.826;4.356;2023-01-25T16:56:55;0.50;99.90
25628;DHT22;40915;50.826;4.356;2023-01-25T16:59:23;0.60;99.90
25628;DHT22;40915;50.826;4.356;2023-01-25T17:01:49;0.70;99.90
25628;DHT22;40915;50.826;4.356;2023-01-25T17:04:16;0.60;99.90
25628;DHT22;40915;50.826;4.356;2023-01-25T17:06:46;0.70;99.90
25628;DHT22;40915;50.826;4.356;2023-01-25T17:09:17;0.80;99.90
25628;DHT22;40915;50.826;4.356;2023-01-25T17:11:44;0.80;99.90
25628;DHT22;40915;50.826;4.356;2023-01-25T17:14:14;0.70;99.90
25628;DHT22;40915;50.826;4.356;2023-01-25T17:16:40;0.70;99.90
25628;DHT22;40915;50.826;4.356;2023-01-25T17:19:09;0.60;99.90
25628;DHT22;40915;50.826;4.356;2023-01-25T17:21:36;0.70;99.90
25628;DHT22;40915;50.826;4.356;2023-01-25T17:24:02;0.70;99.90
25628;DHT22;40915;50.826;4.356;2023-01-25T17:26:29;0.60;99.90
25628;DHT22;40915;50.826;4.356;2023-01-25T17:28:55;0.70;99.90
25628;DHT22;40915;50.826;4.356;2023-01-25T17:31:26;0.70;99.90
25628;DHT22;40915;50.826;4.356;2023-01-25T17:33:53;0.80;99.90
25628;DHT22;40915;50.826;4.356;2023-01-25T17:36:19;0.70;99.90
25628;DHT22;40915;50.826;4.356;2023-01-25T17:38:44;0.80;99.90
25628;DHT22;40915;50.826;4.356;2023-01-25T17:41:12;0.70;99.90
25628;DHT22;40915;50.826;4.356;2023-01-25T17:43:38;0.80;99.90
25628;DHT22;40915;50.826;4.356;2023-01-25T17:46:16;0.80;99.90
25628;DHT22;40915;50.826;4.356;2023-01-25T17:48:43;0.70;99.90
25628;DHT22;40915;50.826;4.356;2023-01-25T17:51:09;0.80;99.90
25628;DHT22;40915;50.826;4.356;2023-01-25T17:53:35;0.70;99.90
25628;DHT22;40915;50.826;4.356;2023-01-25T17:56:02;0.70;99.90
25628;DHT22;40915;50.826;4.356;2023-01-25T17:58:29;0.80;99.90
25628;DHT22;40915;50.826;4.356;2023-01-25T18:00:55;0.80;99.90
25628;DHT22;40915;50.826;4.356;2023-01-25T18:03:20;0.70;99.90
25628;DHT22;40915;50.826;4.356;2023-01-25T18:05:46;0.70;99.90